createdAt,value
2022-09-14T00:00:36.836Z,3.40
2022-09-14T00:03:08.115Z,3.67
2022-09-14T00:05:39.005Z,3.58
2022-09-14T00:08:13.189Z,3.60
2022-09-14T00:10:44.874Z,4.00
2022-09-14T00:13:16.693Z,3.63
2022-09-14T00:15:48.922Z,3.70
2022-09-14T00:18:20.010Z,3.47
2022-09-14T00:20:50.745Z,3.38
2022-09-14T00:23:24.142Z,2.95
2022-09-14T00:25:54.939Z,2.60
2022-09-14T00:28:26.030Z,3.17
2022-09-14T00:30:56.817Z,2.80
2022-09-14T00:33:27.688Z,3.25
2022-09-14T00:35:58.492Z,3.83
2022-09-14T00:38:32.952Z,3.80
2022-09-14T00:41:05.310Z,4.15
2022-09-14T00:43:36.846Z,4.60
2022-09-14T00:46:07.682Z,3.53
2022-09-14T00:48:38.642Z,3.65
2022-09-14T00:51:10.129Z,2.75
2022-09-14T00:53:44.260Z,2.90
2022-09-14T00:56:15.200Z,3.05
2022-09-14T00:58:48.434Z,3.40
2022-09-14T01:01:19.282Z,3.78
2022-09-14T01:03:50.443Z,4.13
2022-09-14T01:06:27.184Z,3.35
2022-09-14T01:09:13.020Z,3.55
2022-09-14T01:11:56.808Z,3.70
2022-09-14T01:14:35.473Z,3.97
2022-09-14T01:17:15.138Z,3.20
2022-09-14T01:20:14.848Z,3.92
2022-09-14T01:22:54.227Z,3.50
2022-09-14T01:25:48.653Z,3.65
2022-09-14T01:28:29.801Z,3.80
2022-09-14T01:31:03.998Z,3.20
2022-09-14T01:33:40.817Z,3.67
2022-09-14T01:38:47.233Z,3.38
2022-09-14T01:41:22.299Z,4.00
2022-09-14T01:43:59.974Z,4.15
2022-09-14T01:46:34.580Z,3.67
2022-09-14T01:49:12.261Z,2.95
2022-09-14T01:51:48.500Z,3.17
2022-09-14T01:54:24.053Z,3.53
2022-09-14T01:56:58.873Z,3.88
2022-09-14T01:59:35.561Z,3.50
2022-09-14T02:02:10.832Z,3.33
2022-09-14T02:04:47.784Z,3.42
2022-09-14T02:09:51.286Z,4.07
2022-09-14T02:12:22.924Z,3.80
2022-09-14T02:14:57.488Z,3.75
2022-09-14T02:17:28.277Z,2.55
2022-09-14T02:20:01.123Z,4.30
2022-09-14T02:22:33.333Z,4.30
2022-09-14T02:25:05.293Z,3.28
2022-09-14T02:27:36.098Z,3.92
2022-09-14T02:30:11.492Z,3.83
2022-09-14T02:32:51.626Z,3.92
2022-09-14T02:35:29.391Z,3.70
2022-09-14T02:38:08.044Z,4.38
2022-09-14T02:40:41.159Z,4.32
2022-09-14T02:43:25.408Z,3.70
2022-09-14T02:46:08.201Z,3.90
2022-09-14T02:48:44.430Z,4.18
2022-09-14T02:51:22.169Z,3.70
2022-09-14T02:53:58.339Z,4.40
2022-09-14T02:56:30.006Z,3.92
2022-09-14T02:59:01.017Z,4.22
2022-09-14T03:01:34.748Z,4.00
2022-09-14T03:04:05.874Z,3.92
2022-09-14T03:06:36.699Z,2.92
2022-09-14T03:09:07.570Z,4.00
2022-09-14T03:11:38.642Z,3.80
2022-09-14T03:14:09.891Z,4.18
2022-09-14T03:16:43.629Z,4.55
2022-09-14T03:19:14.366Z,4.18
2022-09-14T03:21:45.130Z,4.40
2022-09-14T03:24:16.043Z,4.43
2022-09-14T03:26:47.525Z,4.40
2022-09-14T03:29:18.504Z,3.85
2022-09-14T03:31:51.917Z,4.20
2022-09-14T03:34:22.824Z,4.45
2022-09-14T03:36:53.910Z,3.90
2022-09-14T03:39:24.842Z,3.97
2022-09-14T03:41:55.914Z,3.78
2022-09-14T03:44:26.655Z,3.50
2022-09-14T03:47:00.183Z,3.92
2022-09-14T03:49:31.001Z,3.33
2022-09-14T03:52:01.961Z,2.60
2022-09-14T03:54:32.932Z,3.45
2022-09-14T03:57:03.990Z,4.20
2022-09-14T03:59:34.850Z,3.90
2022-09-14T04:02:08.423Z,2.60
2022-09-14T04:04:39.270Z,3.13
2022-09-14T04:07:10.791Z,2.42
2022-09-14T04:09:41.553Z,3.38
2022-09-14T04:12:12.985Z,3.05
2022-09-14T04:14:43.980Z,2.50
2022-09-14T04:17:17.552Z,2.78
2022-09-14T04:19:48.663Z,3.55
2022-09-14T04:22:19.439Z,2.92
2022-09-14T04:24:51.293Z,2.80
2022-09-14T04:27:22.016Z,3.35
2022-09-14T04:29:53.187Z,3.55
2022-09-14T04:32:29.630Z,3.03
2022-09-14T04:35:02.923Z,3.75
2022-09-14T04:37:35.389Z,2.72
2022-09-14T04:40:06.681Z,2.03
2022-09-14T04:42:37.513Z,2.47
2022-09-14T04:45:09.741Z,2.78
2022-09-14T04:47:43.099Z,3.03
2022-09-14T04:50:14.435Z,2.88
2022-09-14T04:52:45.242Z,2.30
2022-09-14T04:55:16.006Z,2.38
2022-09-14T04:57:47.212Z,2.28
2022-09-14T05:00:18.744Z,2.63
2022-09-14T05:02:52.220Z,2.65
2022-09-14T05:05:23.250Z,2.90
2022-09-14T05:07:54.362Z,2.58
2022-09-14T05:10:25.453Z,2.83
2022-09-14T05:12:57.069Z,3.05
2022-09-14T05:15:28.322Z,2.65
2022-09-14T05:18:03.182Z,3.10
2022-09-14T05:20:34.083Z,3.00
2022-09-14T05:23:04.948Z,2.80
2022-09-14T05:25:35.756Z,2.70
2022-09-14T05:28:07.364Z,2.33
2022-09-14T05:30:39.688Z,2.78
2022-09-14T05:33:13.240Z,2.63
2022-09-14T05:35:44.297Z,2.90
2022-09-14T05:38:15.497Z,3.03
2022-09-14T05:40:46.573Z,3.10
2022-09-14T05:43:17.359Z,2.90
2022-09-14T05:45:48.553Z,3.10
2022-09-14T05:48:21.930Z,2.80
2022-09-14T05:50:52.750Z,2.97
2022-09-14T05:53:23.533Z,2.58
2022-09-14T05:56:03.804Z,2.70
2022-09-14T05:58:35.231Z,2.83
2022-09-14T06:01:11.651Z,2.60
2022-09-14T06:03:46.923Z,2.92
2022-09-14T06:06:19.696Z,2.88
2022-09-14T06:08:54.275Z,2.80
2022-09-14T06:11:28.676Z,2.95
2022-09-14T06:14:01.030Z,2.47
2022-09-14T06:16:33.441Z,3.15
2022-09-14T06:19:08.902Z,3.05
2022-09-14T06:21:40.875Z,2.30
2022-09-14T06:24:16.683Z,2.70
2022-09-14T06:26:48.986Z,2.65
2022-09-14T06:29:20.829Z,3.20
2022-09-14T06:31:54.516Z,2.60
2022-09-14T06:34:28.805Z,2.60
2022-09-14T06:37:00.018Z,3.10
2022-09-14T06:39:31.671Z,2.40
2022-09-14T06:42:02.749Z,3.03
2022-09-14T06:44:34.302Z,3.20
2022-09-14T06:47:05.640Z,2.25
2022-09-14T06:49:40.316Z,3.10
2022-09-14T06:52:11.300Z,2.30
2022-09-14T06:54:43.831Z,2.83
2022-09-14T06:57:16.670Z,2.60
2022-09-14T06:59:48.260Z,2.70
2022-09-14T07:02:20.065Z,3.17
2022-09-14T07:04:54.477Z,2.42
2022-09-14T07:07:25.871Z,2.70
2022-09-14T07:09:57.373Z,2.78
2022-09-14T07:12:28.547Z,2.72
2022-09-14T07:14:59.408Z,2.45
2022-09-14T07:17:31.440Z,3.53
2022-09-14T07:20:07.745Z,1.92
2022-09-14T07:22:38.715Z,2.15
2022-09-14T07:25:11.400Z,2.42
2022-09-14T07:27:43.270Z,2.20
2022-09-14T07:30:15.395Z,1.85
2022-09-14T07:32:49.999Z,2.22
2022-09-14T07:35:24.543Z,2.30
2022-09-14T07:37:57.425Z,1.83
2022-09-14T07:40:29.580Z,1.52
2022-09-14T07:43:02.222Z,1.65
2022-09-14T07:45:33.637Z,2.97
2022-09-14T07:48:05.273Z,1.92
2022-09-14T07:50:41.117Z,2.25
2022-09-14T07:53:13.148Z,2.67
2022-09-14T07:55:44.667Z,1.50
2022-09-14T07:58:16.670Z,1.85
2022-09-14T08:00:47.794Z,1.80
2022-09-14T08:03:19.479Z,2.20
2022-09-14T08:05:54.345Z,2.25
2022-09-14T08:08:25.150Z,2.88
2022-09-14T08:10:56.998Z,24.60
2022-09-14T08:13:28.126Z,10.57
2022-09-14T08:16:02.879Z,3.67
2022-09-14T08:18:35.518Z,19.13
2022-09-14T08:21:13.825Z,4.93
2022-09-14T08:23:46.121Z,7.40
2022-09-14T08:26:18.868Z,3.33
2022-09-14T08:28:51.315Z,4.18
2022-09-14T08:31:25.195Z,25.88
2022-09-14T08:33:58.745Z,4.50
2022-09-14T08:36:35.522Z,2.35
2022-09-14T08:41:43.241Z,1.80
2022-09-14T08:44:21.959Z,9.60
2022-09-14T08:46:57.080Z,5.65
2022-09-14T08:49:47.542Z,3.88
2022-09-14T08:52:28.945Z,4.60
2022-09-14T08:55:02.921Z,3.65
2022-09-14T08:57:42.533Z,4.28
2022-09-14T09:00:17.780Z,4.22
2022-09-14T09:03:27.518Z,3.05
2022-09-14T09:06:06.256Z,1.27
2022-09-14T09:08:47.191Z,2.65
2022-09-14T09:11:22.217Z,3.08
2022-09-14T09:13:55.376Z,3.35
2022-09-14T09:16:30.662Z,3.10
2022-09-14T09:19:04.922Z,2.83
2022-09-14T09:21:40.022Z,2.40
2022-09-14T09:24:25.711Z,2.95
2022-09-14T09:26:57.072Z,2.28
2022-09-14T09:29:28.205Z,1.70
2022-09-14T09:32:18.350Z,2.10
2022-09-14T09:35:20.500Z,1.42
2022-09-14T09:38:19.380Z,1.55
2022-09-14T09:40:57.940Z,1.40
2022-09-14T09:43:48.356Z,1.35
2022-09-14T09:46:21.867Z,1.45
2022-09-14T09:48:53.281Z,1.70
2022-09-14T09:51:31.836Z,1.70
2022-09-14T09:54:10.941Z,1.00
2022-09-14T09:56:56.085Z,0.80
2022-09-14T09:59:38.814Z,1.20
2022-09-14T10:02:26.457Z,1.20
2022-09-14T10:05:07.357Z,1.30
2022-09-14T10:07:43.022Z,1.30
2022-09-14T10:10:17.749Z,1.48
2022-09-14T10:12:55.736Z,1.00
2022-09-14T10:15:31.493Z,1.20
2022-09-14T10:18:11.306Z,1.20
2022-09-14T10:20:45.332Z,1.40
2022-09-14T10:23:26.527Z,1.00
2022-09-14T10:26:22.617Z,1.13
2022-09-14T10:28:58.169Z,1.08
2022-09-14T10:31:34.773Z,1.00
2022-09-14T10:34:17.436Z,1.02
2022-09-14T10:36:56.932Z,1.30
2022-09-14T10:39:33.470Z,0.95
2022-09-14T10:42:13.496Z,1.00
2022-09-14T10:45:01.661Z,1.00
2022-09-14T10:47:49.245Z,1.42
2022-09-14T10:50:35.878Z,1.30
2022-09-14T10:53:18.474Z,1.10
2022-09-14T10:55:56.588Z,1.20
2022-09-14T10:58:50.406Z,0.95
2022-09-14T11:01:37.590Z,0.80
2022-09-14T11:04:26.677Z,1.10
2022-09-14T11:07:06.995Z,1.20
2022-09-14T11:09:44.058Z,1.08
2022-09-14T11:12:20.301Z,0.88
2022-09-14T11:15:02.499Z,0.98
2022-09-14T11:17:58.054Z,1.30
2022-09-14T11:20:40.612Z,1.02
2022-09-14T11:23:29.363Z,1.02
2022-09-14T11:26:06.274Z,1.00
2022-09-14T11:28:43.689Z,0.77
2022-09-14T11:31:20.100Z,1.17
2022-09-14T11:33:59.137Z,1.17
2022-09-14T11:36:33.520Z,1.00
2022-09-14T11:39:10.462Z,1.00
2022-09-14T11:41:46.328Z,0.70
2022-09-14T11:44:22.360Z,0.65
2022-09-14T11:47:00.956Z,0.77
2022-09-14T11:49:52.947Z,1.10
2022-09-14T11:52:26.045Z,0.60
2022-09-14T11:54:58.364Z,0.85
2022-09-14T11:57:32.000Z,0.88
2022-09-14T12:00:06.013Z,0.93
2022-09-14T12:03:00.328Z,1.00
2022-09-14T12:05:39.261Z,1.00
2022-09-14T12:08:39.657Z,0.88
2022-09-14T12:11:29.977Z,0.85
2022-09-14T12:14:30.175Z,1.35
2022-09-14T12:20:43.240Z,0.70
2022-09-14T12:23:28.174Z,0.80
2022-09-14T12:26:07.327Z,0.90
2022-09-14T12:28:48.352Z,0.80
2022-09-14T12:31:37.314Z,1.20
2022-09-14T12:34:20.419Z,1.10
2022-09-14T12:37:28.542Z,0.82
2022-09-14T12:40:15.447Z,1.20
2022-09-14T12:42:46.357Z,1.20
2022-09-14T12:45:47.341Z,1.00
2022-09-14T12:48:59.631Z,1.23
2022-09-14T12:51:43.866Z,1.02
2022-09-14T12:54:30.992Z,1.00
2022-09-14T12:57:17.706Z,1.20
2022-09-14T12:59:57.561Z,1.00
2022-09-14T13:03:10.563Z,1.85
2022-09-14T13:05:46.122Z,1.13
2022-09-14T13:08:24.145Z,0.90
2022-09-14T13:10:57.929Z,0.90
2022-09-14T13:13:33.712Z,1.23
2022-09-14T13:16:06.593Z,1.10
2022-09-14T13:18:39.732Z,1.05
2022-09-14T13:21:22.397Z,1.05
2022-09-14T13:23:53.595Z,1.00
2022-09-14T13:26:30.269Z,1.08
2022-09-14T13:29:04.887Z,0.70
2022-09-14T13:31:39.187Z,1.00
2022-09-14T13:34:10.682Z,1.17
2022-09-14T13:36:47.849Z,1.08
2022-09-14T13:39:30.334Z,0.90
2022-09-14T13:42:05.946Z,1.17
2022-09-14T13:44:45.598Z,1.25
2022-09-14T13:47:18.883Z,0.88
2022-09-14T13:49:51.184Z,1.15
2022-09-14T13:52:50.168Z,1.20
2022-09-14T13:55:27.673Z,1.00
2022-09-14T13:58:25.078Z,1.10
2022-09-14T14:01:04.244Z,1.60
2022-09-14T14:03:39.736Z,1.00
2022-09-14T14:06:28.547Z,1.02
2022-09-14T14:09:03.642Z,0.93
2022-09-14T14:11:39.982Z,1.63
2022-09-14T14:14:31.496Z,1.38
2022-09-14T14:17:28.023Z,1.15
2022-09-14T14:20:01.284Z,1.00
2022-09-14T14:22:35.775Z,1.05
2022-09-14T14:25:22.905Z,1.13
2022-09-14T14:28:01.097Z,1.60
2022-09-14T14:30:40.702Z,1.58
2022-09-14T14:33:16.760Z,1.13
2022-09-14T14:35:48.765Z,0.95
2022-09-14T14:38:20.370Z,1.38
2022-09-14T14:40:51.915Z,1.30
2022-09-14T14:43:25.679Z,1.20
2022-09-14T14:46:01.315Z,0.95
2022-09-14T14:48:33.397Z,0.95
2022-09-14T14:51:05.932Z,1.10
2022-09-14T14:53:37.118Z,1.33
2022-09-14T14:56:08.487Z,1.13
2022-09-14T14:58:46.866Z,0.82
2022-09-14T15:01:22.344Z,0.90
2022-09-14T15:03:53.963Z,1.05
2022-09-14T15:06:26.640Z,1.08
2022-09-14T15:08:58.935Z,1.38
2022-09-14T15:11:30.907Z,1.40
2022-09-14T15:14:02.163Z,1.38
2022-09-14T15:16:36.244Z,1.17
2022-09-14T15:19:07.888Z,1.48
2022-09-14T15:21:39.670Z,1.50
2022-09-14T15:24:12.206Z,1.35
2022-09-14T15:26:43.344Z,1.10
2022-09-14T15:29:18.534Z,1.00
2022-09-14T15:31:52.998Z,1.27
2022-09-14T15:34:24.345Z,1.35
2022-09-14T15:36:57.854Z,0.90
2022-09-14T15:39:31.807Z,0.85
2022-09-14T15:42:03.671Z,1.30
2022-09-14T15:44:35.673Z,0.85
2022-09-14T15:47:10.053Z,1.15
2022-09-14T15:49:42.636Z,1.40
2022-09-14T15:52:15.011Z,1.20
2022-09-14T15:54:46.199Z,1.33
2022-09-14T15:57:17.266Z,1.50
2022-09-14T15:59:48.497Z,1.55
2022-09-14T16:02:23.235Z,1.23
2022-09-14T16:04:54.600Z,1.30
2022-09-14T16:07:26.121Z,1.30
2022-09-14T16:09:59.143Z,0.95
2022-09-14T16:12:30.478Z,1.13
2022-09-14T16:15:01.625Z,1.60
2022-09-14T16:17:36.174Z,1.20
2022-09-14T16:20:09.135Z,1.50
2022-09-14T16:22:42.387Z,1.00
2022-09-14T16:25:14.297Z,1.10
2022-09-14T16:27:46.332Z,0.95
2022-09-14T16:30:18.142Z,0.70
2022-09-14T16:33:02.449Z,1.30
2022-09-14T16:36:08.415Z,1.50
2022-09-14T16:39:53.996Z,1.20
2022-09-14T16:42:21.913Z,2.03
2022-09-14T16:45:00.237Z,1.67
2022-09-14T16:51:41.254Z,1.60
2022-09-14T16:55:03.543Z,1.55
2022-09-14T16:57:27.449Z,2.70
2022-09-14T17:03:20.805Z,1.80
2022-09-14T17:05:54.070Z,1.50
2022-09-14T17:08:25.942Z,1.58
2022-09-14T17:10:57.595Z,1.77
2022-09-14T17:13:33.176Z,1.65
2022-09-14T17:16:07.570Z,1.83
2022-09-14T17:18:49.388Z,1.38
2022-09-14T17:21:25.862Z,1.60
2022-09-14T17:23:57.524Z,1.13
2022-09-14T17:26:29.389Z,1.60
2022-09-14T17:29:01.680Z,1.10
2022-09-14T17:31:34.989Z,1.50
2022-09-14T17:34:11.231Z,1.35
2022-09-14T17:36:42.669Z,1.67
2022-09-14T17:39:14.573Z,1.38
2022-09-14T17:41:45.937Z,0.80
2022-09-14T17:44:20.387Z,0.93
2022-09-14T17:46:53.199Z,1.23
2022-09-14T17:49:28.336Z,2.10
2022-09-14T17:52:03.403Z,1.77
2022-09-14T17:54:34.661Z,1.05
2022-09-14T17:57:05.989Z,1.30
2022-09-14T17:59:37.625Z,1.38
2022-09-14T18:02:08.919Z,1.10
2022-09-14T18:04:47.875Z,1.10
2022-09-14T18:07:20.142Z,1.40
2022-09-14T18:09:52.217Z,0.88
2022-09-14T18:12:23.978Z,1.15
2022-09-14T18:14:57.102Z,1.38
2022-09-14T18:17:31.040Z,1.30
2022-09-14T18:20:06.310Z,1.20
2022-09-14T18:22:38.277Z,1.40
2022-09-14T18:25:12.185Z,1.00
2022-09-14T18:27:54.479Z,1.55
2022-09-14T18:30:43.440Z,1.48
2022-09-14T18:45:22.716Z,1.50
2022-09-14T18:47:56.789Z,1.40
2022-09-14T18:57:27.321Z,1.20
2022-09-14T18:59:59.419Z,1.48
2022-09-14T19:03:18.528Z,1.77
2022-09-14T19:05:50.751Z,2.40
2022-09-14T19:08:22.717Z,2.60
2022-09-14T19:10:54.081Z,1.35
2022-09-14T19:13:25.805Z,1.20
2022-09-14T19:15:57.381Z,3.05
2022-09-14T19:18:31.958Z,2.50
2022-09-14T19:21:09.048Z,1.50
2022-09-14T19:26:13.881Z,4.60
2022-09-14T19:29:36.508Z,4.78
2022-09-14T19:32:08.306Z,1.83
2022-09-14T19:34:43.055Z,5.72
2022-09-14T19:37:14.609Z,5.80
2022-09-14T19:39:46.520Z,4.65
2022-09-14T19:42:20.795Z,1.95
2022-09-14T19:45:02.697Z,5.23
2022-09-14T19:51:28.833Z,7.57
2022-09-14T19:54:02.235Z,7.23
2022-09-14T19:56:35.379Z,7.57
2022-09-14T19:59:08.373Z,7.03
2022-09-14T20:01:41.316Z,2.00
2022-09-14T20:04:13.588Z,1.92
2022-09-14T20:06:49.105Z,7.35
2022-09-14T20:09:22.491Z,2.33
2022-09-14T20:11:55.194Z,6.25
2022-09-14T20:14:28.465Z,4.47
2022-09-14T20:17:02.644Z,5.05
2022-09-14T20:19:36.316Z,4.53
2022-09-14T20:22:12.607Z,3.33
2022-09-14T20:24:49.269Z,6.95
2022-09-14T20:27:20.027Z,6.88
2022-09-14T20:29:50.921Z,3.40
2022-09-14T20:32:21.793Z,4.50
2022-09-14T20:34:52.805Z,8.70
2022-09-14T20:37:26.133Z,8.65
2022-09-14T20:39:57.126Z,8.40
2022-09-14T20:42:28.601Z,5.70
2022-09-14T20:44:59.379Z,8.43
2022-09-14T20:47:30.252Z,8.73
2022-09-14T20:50:01.069Z,7.20
2022-09-14T20:52:34.894Z,4.13
2022-09-14T20:55:06.480Z,9.00
2022-09-14T20:57:37.309Z,8.18
2022-09-14T21:00:09.093Z,8.43
2022-09-14T21:02:40.444Z,6.70
2022-09-14T21:05:12.026Z,6.30
2022-09-14T21:07:56.013Z,3.30
2022-09-14T21:10:29.400Z,3.95
2022-09-14T21:13:00.660Z,3.30
2022-09-14T21:15:31.497Z,3.65
2022-09-14T21:18:02.347Z,3.45
2022-09-14T21:20:33.389Z,3.20
2022-09-14T21:23:08.230Z,2.88
2022-09-14T21:25:40.663Z,2.80
2022-09-14T21:28:11.484Z,3.33
2022-09-14T21:30:42.597Z,2.78
2022-09-14T21:33:13.567Z,2.97
2022-09-14T21:35:44.407Z,2.15
2022-09-14T21:38:18.124Z,2.35
2022-09-14T21:40:49.102Z,2.80
2022-09-14T21:43:20.010Z,3.03
2022-09-14T21:45:50.901Z,2.75
2022-09-14T21:48:21.752Z,4.35
2022-09-14T21:50:52.557Z,2.90
2022-09-14T21:53:26.341Z,3.42
2022-09-14T21:55:57.090Z,3.42
2022-09-14T21:58:28.510Z,2.42
2022-09-14T22:01:01.353Z,3.80
2022-09-14T22:03:32.597Z,2.92
2022-09-14T22:06:05.614Z,3.40
2022-09-14T22:08:39.193Z,3.50
2022-09-14T22:11:12.299Z,4.18
2022-09-14T22:13:43.424Z,3.08
2022-09-14T22:16:16.461Z,4.90
2022-09-14T22:18:52.905Z,4.95
2022-09-14T22:21:25.581Z,3.10
2022-09-14T22:24:01.907Z,3.42
2022-09-14T22:26:35.152Z,4.18
2022-09-14T22:29:05.975Z,3.05
2022-09-14T22:31:36.976Z,4.45
2022-09-14T22:34:07.789Z,11.45
2022-09-14T22:36:39.459Z,4.32
2022-09-14T22:39:13.568Z,2.83
2022-09-14T22:41:44.449Z,3.20
2022-09-14T22:44:18.198Z,4.45
2022-09-14T22:46:49.132Z,7.03
2022-09-14T22:49:19.923Z,12.65
2022-09-14T22:51:51.128Z,12.30
2022-09-14T22:54:24.610Z,12.90
2022-09-14T22:56:55.388Z,10.23
2022-09-14T22:59:26.386Z,10.98
2022-09-14T23:01:57.279Z,8.98
2022-09-14T23:04:28.557Z,5.13
2022-09-14T23:07:00.197Z,4.70
2022-09-14T23:09:33.777Z,8.10
2022-09-14T23:12:05.082Z,4.45
2022-09-14T23:14:35.940Z,10.07
2022-09-14T23:17:06.820Z,12.43
2022-09-14T23:19:37.731Z,6.57
2022-09-14T23:22:08.747Z,6.57
2022-09-14T23:24:42.096Z,11.90
2022-09-14T23:27:13.291Z,7.32
2022-09-14T23:29:44.071Z,7.18
2022-09-14T23:32:14.911Z,6.03
2022-09-14T23:34:46.156Z,6.47
2022-09-14T23:37:17.225Z,5.70
2022-09-14T23:39:58.019Z,5.95
2022-09-14T23:42:28.781Z,5.38
2022-09-14T23:44:59.476Z,5.55
2022-09-14T23:47:30.472Z,8.52
2022-09-14T23:50:01.518Z,7.75
2022-09-14T23:52:32.551Z,11.35
2022-09-14T23:55:05.869Z,8.32
2022-09-14T23:57:37.074Z,10.75
